sensor_id;sensor_type;location;lat;lon;timestamp;P1;durP1;ratioP1;P2;durP2;ratioP2
4698;SDS011;33708;49.466;11.176;2022-08-11T00:00:38;10.57;;;5.00;;
4698;SDS011;33708;49.466;11.176;2022-08-11T00:03:13;13.40;;;5.10;;
4698;SDS011;33708;49.466;11.176;2022-08-11T00:05:48;9.33;;;4.83;;
4698;SDS011;33708;49.466;11.176;2022-08-11T00:08:20;9.33;;;5.00;;
4698;SDS011;33708;49.466;11.176;2022-08-11T00:10:52;9.73;;;5.10;;
4698;SDS011;33708;49.466;11.176;2022-08-11T00:13:30;9.97;;;4.63;;
4698;SDS011;33708;49.466;11.176;2022-08-11T00:16:01;12.73;;;5.00;;
4698;SDS011;33708;49.466;11.176;2022-08-11T00:18:28;10.20;;;5.27;;
4698;SDS011;33708;49.466;11.176;2022-08-11T00:21:03;10.77;;;4.47;;
4698;SDS011;33708;49.466;11.176;2022-08-11T00:23:29;17.00;;;5.27;;
4698;SDS011;33708;49.466;11.176;2022-08-11T00:25:55;10.17;;;4.70;;
4698;SDS011;33708;49.466;11.176;2022-08-11T00:28:28;11.10;;;4.90;;
4698;SDS011;33708;49.466;11.176;2022-08-11T00:30:55;10.17;;;5.70;;
4698;SDS011;33708;49.466;11.176;2022-08-11T00:33:23;14.23;;;5.20;;
4698;SDS011;33708;49.466;11.176;2022-08-11T00:35:56;9.70;;;5.03;;
4698;SDS011;33708;49.466;11.176;2022-08-11T00:38:25;14.93;;;5.37;;
4698;SDS011;33708;49.466;11.176;2022-08-11T00:49:37;8.37;;;4.80;;
4698;SDS011;33708;49.466;11.176;2022-08-11T00:52:35;8.80;;;5.30;;
4698;SDS011;33708;49.466;11.176;2022-08-11T01:10:13;9.43;;;5.50;;
4698;SDS011;33708;49.466;11.176;2022-08-11T01:24:45;16.27;;;4.80;;
4698;SDS011;33708;49.466;11.176;2022-08-11T01:27:33;11.20;;;4.93;;
4698;SDS011;33708;49.466;11.176;2022-08-11T01:42:06;8.50;;;4.93;;
4698;SDS011;33708;49.466;11.176;2022-08-11T01:48:01;13.73;;;6.13;;
4698;SDS011;33708;49.466;11.176;2022-08-11T01:59:18;18.40;;;5.60;;
4698;SDS011;33708;49.466;11.176;2022-08-11T02:04:46;10.00;;;5.23;;
4698;SDS011;33708;49.466;11.176;2022-08-11T02:07:28;12.30;;;5.60;;
4698;SDS011;33708;49.466;11.176;2022-08-11T02:13:39;10.07;;;5.50;;
4698;SDS011;33708;49.466;11.176;2022-08-11T02:19:10;13.90;;;5.60;;
4698;SDS011;33708;49.466;11.176;2022-08-11T02:22:04;15.63;;;5.50;;
4698;SDS011;33708;49.466;11.176;2022-08-11T02:25:01;10.90;;;5.80;;
4698;SDS011;33708;49.466;11.176;2022-08-11T02:27:47;13.13;;;6.00;;
4698;SDS011;33708;49.466;11.176;2022-08-11T02:30:22;13.40;;;5.67;;
4698;SDS011;33708;49.466;11.176;2022-08-11T02:32:57;14.20;;;6.77;;
4698;SDS011;33708;49.466;11.176;2022-08-11T02:41:57;15.80;;;5.90;;
4698;SDS011;33708;49.466;11.176;2022-08-11T02:59:29;12.17;;;6.20;;
4698;SDS011;33708;49.466;11.176;2022-08-11T03:07:49;14.87;;;6.80;;
4698;SDS011;33708;49.466;11.176;2022-08-11T03:10:27;14.10;;;6.53;;
4698;SDS011;33708;49.466;11.176;2022-08-11T03:13:03;19.13;;;6.47;;
4698;SDS011;33708;49.466;11.176;2022-08-11T03:21:46;13.97;;;7.53;;
4698;SDS011;33708;49.466;11.176;2022-08-11T03:27:40;14.00;;;6.50;;
4698;SDS011;33708;49.466;11.176;2022-08-11T03:30:39;13.97;;;6.83;;
4698;SDS011;33708;49.466;11.176;2022-08-11T03:33:20;14.30;;;6.20;;
4698;SDS011;33708;49.466;11.176;2022-08-11T03:36:14;18.50;;;7.33;;
4698;SDS011;33708;49.466;11.176;2022-08-11T03:39:15;15.73;;;6.20;;
4698;SDS011;33708;49.466;11.176;2022-08-11T03:50:21;9.10;;;5.80;;
4698;SDS011;33708;49.466;11.176;2022-08-11T04:00:44;12.90;;;4.77;;
4698;SDS011;33708;49.466;11.176;2022-08-11T04:11:50;13.63;;;5.90;;
4698;SDS011;33708;49.466;11.176;2022-08-11T04:38:04;18.67;;;4.43;;
4698;SDS011;33708;49.466;11.176;2022-08-11T04:41:12;11.90;;;5.40;;
4698;SDS011;33708;49.466;11.176;2022-08-11T04:47:13;16.83;;;4.40;;
4698;SDS011;33708;49.466;11.176;2022-08-11T04:50:28;10.00;;;4.13;;
4698;SDS011;33708;49.466;11.176;2022-08-11T04:56:48;9.80;;;4.00;;
4698;SDS011;33708;49.466;11.176;2022-08-11T05:05:35;11.27;;;4.23;;
4698;SDS011;33708;49.466;11.176;2022-08-11T05:08:45;9.47;;;3.73;;
4698;SDS011;33708;49.466;11.176;2022-08-11T05:17:10;15.73;;;3.80;;
4698;SDS011;33708;49.466;11.176;2022-08-11T05:19:57;12.50;;;4.37;;
4698;SDS011;33708;49.466;11.176;2022-08-11T05:22:46;10.43;;;4.20;;
4698;SDS011;33708;49.466;11.176;2022-08-11T05:25:33;9.57;;;3.80;;
4698;SDS011;33708;49.466;11.176;2022-08-11T05:28:30;30.37;;;4.13;;
4698;SDS011;33708;49.466;11.176;2022-08-11T05:31:17;8.40;;;3.50;;
4698;SDS011;33708;49.466;11.176;2022-08-11T05:34:09;13.10;;;4.10;;
4698;SDS011;33708;49.466;11.176;2022-08-11T05:37:04;10.80;;;4.60;;
4698;SDS011;33708;49.466;11.176;2022-08-11T05:39:37;9.37;;;3.83;;
4698;SDS011;33708;49.466;11.176;2022-08-11T05:42:26;8.30;;;3.30;;
4698;SDS011;33708;49.466;11.176;2022-08-11T05:45:13;8.17;;;3.50;;
4698;SDS011;33708;49.466;11.176;2022-08-11T05:47:59;9.50;;;3.67;;
4698;SDS011;33708;49.466;11.176;2022-08-11T05:50:54;8.77;;;3.20;;
4698;SDS011;33708;49.466;11.176;2022-08-11T05:53:52;11.00;;;3.70;;
4698;SDS011;33708;49.466;11.176;2022-08-11T05:56:41;8.70;;;3.60;;
4698;SDS011;33708;49.466;11.176;2022-08-11T05:59:27;9.77;;;3.30;;
4698;SDS011;33708;49.466;11.176;2022-08-11T06:02:02;9.10;;;3.07;;
4698;SDS011;33708;49.466;11.176;2022-08-11T06:04:30;8.97;;;3.60;;
4698;SDS011;33708;49.466;11.176;2022-08-11T06:09:24;19.40;;;3.40;;
4698;SDS011;33708;49.466;11.176;2022-08-11T06:11:50;8.57;;;3.20;;
4698;SDS011;33708;49.466;11.176;2022-08-11T06:14:17;10.20;;;3.27;;
4698;SDS011;33708;49.466;11.176;2022-08-11T06:16:46;10.87;;;4.20;;
4698;SDS011;33708;49.466;11.176;2022-08-11T06:19:13;8.07;;;3.70;;
4698;SDS011;33708;49.466;11.176;2022-08-11T06:21:43;11.40;;;3.30;;
4698;SDS011;33708;49.466;11.176;2022-08-11T06:24:11;10.00;;;2.90;;
4698;SDS011;33708;49.466;11.176;2022-08-11T06:26:40;10.90;;;3.10;;
4698;SDS011;33708;49.466;11.176;2022-08-11T06:29:11;9.50;;;3.80;;
4698;SDS011;33708;49.466;11.176;2022-08-11T06:31:42;8.60;;;3.17;;
4698;SDS011;33708;49.466;11.176;2022-08-11T06:37:09;16.20;;;3.70;;
4698;SDS011;33708;49.466;11.176;2022-08-11T06:46:01;9.90;;;3.57;;
4698;SDS011;33708;49.466;11.176;2022-08-11T06:48:32;10.93;;;4.30;;
4698;SDS011;33708;49.466;11.176;2022-08-11T06:51:01;7.93;;;3.00;;
4698;SDS011;33708;49.466;11.176;2022-08-11T06:56:14;9.33;;;3.80;;
4698;SDS011;33708;49.466;11.176;2022-08-11T06:59:05;7.67;;;3.40;;
4698;SDS011;33708;49.466;11.176;2022-08-11T07:04:20;12.20;;;3.20;;
4698;SDS011;33708;49.466;11.176;2022-08-11T07:07:08;7.70;;;3.00;;
4698;SDS011;33708;49.466;11.176;2022-08-11T07:13:23;10.30;;;3.73;;
4698;SDS011;33708;49.466;11.176;2022-08-11T07:16:09;8.60;;;3.40;;
4698;SDS011;33708;49.466;11.176;2022-08-11T07:18:40;12.40;;;3.10;;
4698;SDS011;33708;49.466;11.176;2022-08-11T07:24:17;9.53;;;3.30;;
4698;SDS011;33708;49.466;11.176;2022-08-11T07:27:07;9.10;;;3.10;;
4698;SDS011;33708;49.466;11.176;2022-08-11T07:29:56;15.10;;;3.13;;
4698;SDS011;33708;49.466;11.176;2022-08-11T07:32:26;7.80;;;2.90;;
4698;SDS011;33708;49.466;11.176;2022-08-11T07:34:56;9.93;;;2.87;;
4698;SDS011;33708;49.466;11.176;2022-08-11T07:37:46;9.87;;;2.87;;
4698;SDS011;33708;49.466;11.176;2022-08-11T07:40:20;7.80;;;3.13;;
4698;SDS011;33708;49.466;11.176;2022-08-11T07:42:48;10.23;;;3.93;;
4698;SDS011;33708;49.466;11.176;2022-08-11T07:45:16;7.10;;;3.00;;
4698;SDS011;33708;49.466;11.176;2022-08-11T07:48:01;11.50;;;2.70;;
4698;SDS011;33708;49.466;11.176;2022-08-11T07:50:46;16.93;;;3.07;;
4698;SDS011;33708;49.466;11.176;2022-08-11T07:53:31;11.33;;;2.90;;
4698;SDS011;33708;49.466;11.176;2022-08-11T07:55:59;6.90;;;3.17;;
4698;SDS011;33708;49.466;11.176;2022-08-11T07:58:27;7.97;;;2.67;;
4698;SDS011;33708;49.466;11.176;2022-08-11T08:01:22;8.77;;;3.03;;
4698;SDS011;33708;49.466;11.176;2022-08-11T08:04:08;9.57;;;3.03;;
4698;SDS011;33708;49.466;11.176;2022-08-11T08:06:55;9.87;;;3.13;;
4698;SDS011;33708;49.466;11.176;2022-08-11T08:09:41;9.03;;;2.60;;
4698;SDS011;33708;49.466;11.176;2022-08-11T08:12:26;9.77;;;2.77;;
4698;SDS011;33708;49.466;11.176;2022-08-11T08:15:12;11.20;;;2.37;;
4698;SDS011;33708;49.466;11.176;2022-08-11T08:17:59;14.07;;;2.90;;
4698;SDS011;33708;49.466;11.176;2022-08-11T08:20:32;7.27;;;2.80;;
4698;SDS011;33708;49.466;11.176;2022-08-11T08:23:02;9.63;;;3.17;;
4698;SDS011;33708;49.466;11.176;2022-08-11T08:25:32;11.50;;;3.27;;
4698;SDS011;33708;49.466;11.176;2022-08-11T08:28:03;11.60;;;3.10;;
4698;SDS011;33708;49.466;11.176;2022-08-11T08:30:31;14.23;;;2.97;;
4698;SDS011;33708;49.466;11.176;2022-08-11T08:33:32;7.60;;;2.77;;
4698;SDS011;33708;49.466;11.176;2022-08-11T08:36:00;9.33;;;2.90;;
4698;SDS011;33708;49.466;11.176;2022-08-11T08:41:19;7.77;;;2.80;;
4698;SDS011;33708;49.466;11.176;2022-08-11T08:43:50;8.93;;;2.60;;
4698;SDS011;33708;49.466;11.176;2022-08-11T08:46:21;11.17;;;3.03;;
4698;SDS011;33708;49.466;11.176;2022-08-11T08:48:51;9.87;;;2.60;;
4698;SDS011;33708;49.466;11.176;2022-08-11T08:51:18;8.37;;;2.77;;
4698;SDS011;33708;49.466;11.176;2022-08-11T08:54:05;9.30;;;2.77;;
4698;SDS011;33708;49.466;11.176;2022-08-11T08:56:34;9.00;;;2.60;;
4698;SDS011;33708;49.466;11.176;2022-08-11T08:59:04;10.23;;;2.60;;
4698;SDS011;33708;49.466;11.176;2022-08-11T09:01:54;7.47;;;2.77;;
4698;SDS011;33708;49.466;11.176;2022-08-11T09:04:21;9.03;;;2.53;;
4698;SDS011;33708;49.466;11.176;2022-08-11T09:06:48;11.67;;;2.73;;
4698;SDS011;33708;49.466;11.176;2022-08-11T09:09:14;6.70;;;2.53;;
4698;SDS011;33708;49.466;11.176;2022-08-11T09:11:41;28.97;;;3.00;;
4698;SDS011;33708;49.466;11.176;2022-08-11T09:14:18;12.20;;;2.80;;
4698;SDS011;33708;49.466;11.176;2022-08-11T09:16:44;8.63;;;3.20;;
4698;SDS011;33708;49.466;11.176;2022-08-11T09:19:12;7.53;;;2.40;;
4698;SDS011;33708;49.466;11.176;2022-08-11T09:21:42;9.43;;;2.80;;
4698;SDS011;33708;49.466;11.176;2022-08-11T09:24:30;20.23;;;2.63;;
4698;SDS011;33708;49.466;11.176;2022-08-11T09:27:14;8.40;;;2.60;;
4698;SDS011;33708;49.466;11.176;2022-08-11T09:29:40;9.60;;;2.40;;
4698;SDS011;33708;49.466;11.176;2022-08-11T09:32:07;11.30;;;2.60;;
4698;SDS011;33708;49.466;11.176;2022-08-11T09:34:34;8.30;;;2.20;;
4698;SDS011;33708;49.466;11.176;2022-08-11T09:37:01;9.57;;;2.40;;
4698;SDS011;33708;49.466;11.176;2022-08-11T09:39:47;12.37;;;2.90;;
4698;SDS011;33708;49.466;11.176;2022-08-11T09:42:31;6.10;;;2.20;;
4698;SDS011;33708;49.466;11.176;2022-08-11T09:45:16;12.13;;;2.53;;
4698;SDS011;33708;49.466;11.176;2022-08-11T09:47:43;7.40;;;2.47;;
4698;SDS011;33708;49.466;11.176;2022-08-11T09:50:09;8.63;;;2.80;;
4698;SDS011;33708;49.466;11.176;2022-08-11T09:52:39;18.20;;;2.70;;
4698;SDS011;33708;49.466;11.176;2022-08-11T09:55:06;8.80;;;2.47;;
4698;SDS011;33708;49.466;11.176;2022-08-11T09:57:37;7.70;;;2.40;;
4698;SDS011;33708;49.466;11.176;2022-08-11T10:00:27;7.60;;;2.23;;
4698;SDS011;33708;49.466;11.176;2022-08-11T10:02:53;7.97;;;2.60;;
4698;SDS011;33708;49.466;11.176;2022-08-11T10:05:21;8.07;;;2.60;;
4698;SDS011;33708;49.466;11.176;2022-08-11T10:08:07;7.87;;;2.87;;
4698;SDS011;33708;49.466;11.176;2022-08-11T10:10:36;7.80;;;2.57;;
4698;SDS011;33708;49.466;11.176;2022-08-11T10:13:08;6.83;;;2.30;;
4698;SDS011;33708;49.466;11.176;2022-08-11T10:15:37;10.90;;;2.60;;
4698;SDS011;33708;49.466;11.176;2022-08-11T10:20:58;12.10;;;2.43;;
4698;SDS011;33708;49.466;11.176;2022-08-11T10:26:56;7.40;;;2.63;;
4698;SDS011;33708;49.466;11.176;2022-08-11T10:29:31;9.00;;;2.97;;
4698;SDS011;33708;49.466;11.176;2022-08-11T10:32:21;8.67;;;2.80;;
4698;SDS011;33708;49.466;11.176;2022-08-11T10:35:07;12.00;;;2.93;;
4698;SDS011;33708;49.466;11.176;2022-08-11T10:37:50;9.50;;;3.00;;
4698;SDS011;33708;49.466;11.176;2022-08-11T10:40:17;8.40;;;2.40;;
4698;SDS011;33708;49.466;11.176;2022-08-11T10:42:48;8.33;;;2.47;;
4698;SDS011;33708;49.466;11.176;2022-08-11T10:45:28;11.97;;;2.70;;
4698;SDS011;33708;49.466;11.176;2022-08-11T10:48:14;9.63;;;2.17;;
4698;SDS011;33708;49.466;11.176;2022-08-11T10:50:45;7.90;;;2.00;;
4698;SDS011;33708;49.466;11.176;2022-08-11T10:53:31;7.93;;;2.30;;
4698;SDS011;33708;49.466;11.176;2022-08-11T10:56:16;7.20;;;2.00;;
4698;SDS011;33708;49.466;11.176;2022-08-11T10:59:02;8.80;;;2.10;;
4698;SDS011;33708;49.466;11.176;2022-08-11T11:01:33;7.60;;;2.40;;
4698;SDS011;33708;49.466;11.176;2022-08-11T11:04:22;6.90;;;2.40;;
4698;SDS011;33708;49.466;11.176;2022-08-11T11:07:03;12.60;;;2.30;;
4698;SDS011;33708;49.466;11.176;2022-08-11T11:09:43;12.50;;;2.00;;
4698;SDS011;33708;49.466;11.176;2022-08-11T11:15:25;10.27;;;2.67;;
4698;SDS011;33708;49.466;11.176;2022-08-11T11:20:58;16.20;;;2.20;;
4698;SDS011;33708;49.466;11.176;2022-08-11T11:37:36;7.63;;;2.03;;
4698;SDS011;33708;49.466;11.176;2022-08-11T11:40:13;12.63;;;2.37;;
4698;SDS011;33708;49.466;11.176;2022-08-11T11:42:45;11.07;;;2.43;;
4698;SDS011;33708;49.466;11.176;2022-08-11T11:45:16;11.53;;;2.50;;
4698;SDS011;33708;49.466;11.176;2022-08-11T11:47:44;6.70;;;2.10;;
4698;SDS011;33708;49.466;11.176;2022-08-11T11:50:16;9.33;;;2.10;;
4698;SDS011;33708;49.466;11.176;2022-08-11T11:52:49;10.30;;;2.50;;
4698;SDS011;33708;49.466;11.176;2022-08-11T11:55:17;12.10;;;2.17;;
4698;SDS011;33708;49.466;11.176;2022-08-11T11:57:45;9.47;;;2.07;;
4698;SDS011;33708;49.466;11.176;2022-08-11T12:00:30;7.80;;;2.17;;
4698;SDS011;33708;49.466;11.176;2022-08-11T12:03:15;9.03;;;2.13;;
4698;SDS011;33708;49.466;11.176;2022-08-11T12:05:42;6.73;;;1.90;;
4698;SDS011;33708;49.466;11.176;2022-08-11T12:08:08;8.63;;;2.00;;
4698;SDS011;33708;49.466;11.176;2022-08-11T12:10:43;6.50;;;2.30;;
4698;SDS011;33708;49.466;11.176;2022-08-11T12:13:12;6.80;;;1.87;;
4698;SDS011;33708;49.466;11.176;2022-08-11T12:15:58;6.27;;;2.00;;
4698;SDS011;33708;49.466;11.176;2022-08-11T12:18:36;9.37;;;2.03;;
4698;SDS011;33708;49.466;11.176;2022-08-11T12:21:03;7.87;;;2.13;;
4698;SDS011;33708;49.466;11.176;2022-08-11T12:23:31;8.93;;;2.10;;
4698;SDS011;33708;49.466;11.176;2022-08-11T12:26:18;10.80;;;2.60;;
4698;SDS011;33708;49.466;11.176;2022-08-11T12:29:03;6.80;;;1.90;;
4698;SDS011;33708;49.466;11.176;2022-08-11T12:31:33;10.93;;;2.17;;
4698;SDS011;33708;49.466;11.176;2022-08-11T12:34:02;8.63;;;2.10;;
4698;SDS011;33708;49.466;11.176;2022-08-11T12:37:03;9.93;;;2.20;;
4698;SDS011;33708;49.466;11.176;2022-08-11T12:39:24;10.33;;;2.20;;
4698;SDS011;33708;49.466;11.176;2022-08-11T12:42:16;6.37;;;1.90;;
4698;SDS011;33708;49.466;11.176;2022-08-11T12:45:02;9.90;;;1.90;;
4698;SDS011;33708;49.466;11.176;2022-08-11T12:47:53;7.90;;;2.23;;
4698;SDS011;33708;49.466;11.176;2022-08-11T12:50:43;5.80;;;2.00;;
4698;SDS011;33708;49.466;11.176;2022-08-11T12:53:30;6.30;;;1.90;;
4698;SDS011;33708;49.466;11.176;2022-08-11T12:56:01;7.80;;;2.00;;
4698;SDS011;33708;49.466;11.176;2022-08-11T12:58:48;9.87;;;2.03;;
4698;SDS011;33708;49.466;11.176;2022-08-11T13:01:16;7.70;;;1.80;;
4698;SDS011;33708;49.466;11.176;2022-08-11T13:04:03;7.60;;;2.10;;
4698;SDS011;33708;49.466;11.176;2022-08-11T13:06:48;11.73;;;2.10;;
4698;SDS011;33708;49.466;11.176;2022-08-11T13:09:15;13.87;;;3.33;;
4698;SDS011;33708;49.466;11.176;2022-08-11T13:11:42;7.33;;;2.57;;
4698;SDS011;33708;49.466;11.176;2022-08-11T13:14:28;8.10;;;2.23;;
4698;SDS011;33708;49.466;11.176;2022-08-11T13:16:56;6.50;;;2.10;;
4698;SDS011;33708;49.466;11.176;2022-08-11T13:19:42;14.60;;;2.57;;
4698;SDS011;33708;49.466;11.176;2022-08-11T13:22:09;8.20;;;2.40;;
4698;SDS011;33708;49.466;11.176;2022-08-11T13:24:35;10.20;;;2.10;;
4698;SDS011;33708;49.466;11.176;2022-08-11T13:27:02;6.90;;;2.27;;
4698;SDS011;33708;49.466;11.176;2022-08-11T13:29:28;6.60;;;2.33;;
4698;SDS011;33708;49.466;11.176;2022-08-11T13:31:55;9.30;;;2.20;;
4698;SDS011;33708;49.466;11.176;2022-08-11T13:34:23;8.53;;;2.37;;
4698;SDS011;33708;49.466;11.176;2022-08-11T13:36:51;11.50;;;2.50;;
4698;SDS011;33708;49.466;11.176;2022-08-11T13:39:20;7.60;;;2.10;;
4698;SDS011;33708;49.466;11.176;2022-08-11T13:41:47;7.40;;;2.10;;
4698;SDS011;33708;49.466;11.176;2022-08-11T13:44:14;12.23;;;2.37;;
4698;SDS011;33708;49.466;11.176;2022-08-11T13:46:41;6.83;;;2.40;;
4698;SDS011;33708;49.466;11.176;2022-08-11T13:49:08;10.37;;;2.63;;
4698;SDS011;33708;49.466;11.176;2022-08-11T13:51:37;7.70;;;2.40;;
4698;SDS011;33708;49.466;11.176;2022-08-11T13:54:11;10.57;;;2.20;;
4698;SDS011;33708;49.466;11.176;2022-08-11T13:56:43;8.50;;;2.20;;
4698;SDS011;33708;49.466;11.176;2022-08-11T13:59:11;7.10;;;2.00;;
4698;SDS011;33708;49.466;11.176;2022-08-11T14:01:40;8.93;;;1.63;;
4698;SDS011;33708;49.466;11.176;2022-08-11T14:04:13;11.10;;;1.90;;
4698;SDS011;33708;49.466;11.176;2022-08-11T14:06:47;10.80;;;2.00;;
4698;SDS011;33708;49.466;11.176;2022-08-11T14:09:17;10.57;;;2.60;;
4698;SDS011;33708;49.466;11.176;2022-08-11T14:11:50;7.73;;;2.30;;
4698;SDS011;33708;49.466;11.176;2022-08-11T14:14:39;7.43;;;2.20;;
4698;SDS011;33708;49.466;11.176;2022-08-11T14:17:07;10.20;;;2.47;;
4698;SDS011;33708;49.466;11.176;2022-08-11T14:19:43;11.27;;;2.63;;
4698;SDS011;33708;49.466;11.176;2022-08-11T14:22:11;5.83;;;2.37;;
4698;SDS011;33708;49.466;11.176;2022-08-11T14:24:39;7.27;;;2.20;;
4698;SDS011;33708;49.466;11.176;2022-08-11T14:27:09;7.83;;;2.37;;
4698;SDS011;33708;49.466;11.176;2022-08-11T14:29:37;13.97;;;2.20;;
4698;SDS011;33708;49.466;11.176;2022-08-11T14:32:06;6.20;;;1.97;;
4698;SDS011;33708;49.466;11.176;2022-08-11T14:34:35;7.07;;;2.47;;
4698;SDS011;33708;49.466;11.176;2022-08-11T14:37:05;6.73;;;2.10;;
4698;SDS011;33708;49.466;11.176;2022-08-11T14:39:37;7.23;;;1.80;;
4698;SDS011;33708;49.466;11.176;2022-08-11T14:42:50;6.50;;;2.27;;
4698;SDS011;33708;49.466;11.176;2022-08-11T14:45:35;6.13;;;1.97;;
4698;SDS011;33708;49.466;11.176;2022-08-11T14:48:20;7.00;;;1.80;;
4698;SDS011;33708;49.466;11.176;2022-08-11T14:50:47;8.87;;;2.00;;
4698;SDS011;33708;49.466;11.176;2022-08-11T14:53:12;6.77;;;1.60;;
4698;SDS011;33708;49.466;11.176;2022-08-11T14:55:40;7.43;;;1.83;;
4698;SDS011;33708;49.466;11.176;2022-08-11T14:58:27;8.20;;;1.80;;
4698;SDS011;33708;49.466;11.176;2022-08-11T15:00:56;8.13;;;2.37;;
4698;SDS011;33708;49.466;11.176;2022-08-11T15:03:24;7.10;;;1.93;;
4698;SDS011;33708;49.466;11.176;2022-08-11T15:05:53;6.47;;;2.00;;
4698;SDS011;33708;49.466;11.176;2022-08-11T15:08:29;8.47;;;2.00;;
4698;SDS011;33708;49.466;11.176;2022-08-11T15:11:17;7.20;;;1.80;;
4698;SDS011;33708;49.466;11.176;2022-08-11T15:14:05;15.47;;;2.30;;
4698;SDS011;33708;49.466;11.176;2022-08-11T15:16:33;10.60;;;2.20;;
4698;SDS011;33708;49.466;11.176;2022-08-11T15:19:19;6.00;;;1.90;;
4698;SDS011;33708;49.466;11.176;2022-08-11T15:21:45;9.83;;;1.90;;
4698;SDS011;33708;49.466;11.176;2022-08-11T15:24:30;8.77;;;2.37;;
4698;SDS011;33708;49.466;11.176;2022-08-11T15:26:59;8.63;;;2.10;;
4698;SDS011;33708;49.466;11.176;2022-08-11T15:30:01;7.03;;;2.10;;
4698;SDS011;33708;49.466;11.176;2022-08-11T15:32:47;5.37;;;1.70;;
4698;SDS011;33708;49.466;11.176;2022-08-11T15:35:32;5.73;;;2.20;;
4698;SDS011;33708;49.466;11.176;2022-08-11T15:38:20;9.03;;;2.10;;
4698;SDS011;33708;49.466;11.176;2022-08-11T15:40:46;8.20;;;2.17;;
4698;SDS011;33708;49.466;11.176;2022-08-11T15:43:34;9.13;;;2.13;;
4698;SDS011;33708;49.466;11.176;2022-08-11T15:48:56;10.17;;;2.70;;
4698;SDS011;33708;49.466;11.176;2022-08-11T15:51:34;9.50;;;2.03;;
4698;SDS011;33708;49.466;11.176;2022-08-11T15:54:06;5.93;;;1.70;;
4698;SDS011;33708;49.466;11.176;2022-08-11T15:56:36;12.07;;;2.13;;
4698;SDS011;33708;49.466;11.176;2022-08-11T15:59:06;10.43;;;2.30;;
4698;SDS011;33708;49.466;11.176;2022-08-11T16:01:52;7.63;;;2.00;;
4698;SDS011;33708;49.466;11.176;2022-08-11T16:04:38;7.40;;;2.03;;
4698;SDS011;33708;49.466;11.176;2022-08-11T16:07:07;7.00;;;2.13;;
4698;SDS011;33708;49.466;11.176;2022-08-11T16:09:43;10.77;;;2.30;;
4698;SDS011;33708;49.466;11.176;2022-08-11T16:12:12;10.83;;;2.10;;
4698;SDS011;33708;49.466;11.176;2022-08-11T16:14:45;9.20;;;2.00;;
4698;SDS011;33708;49.466;11.176;2022-08-11T16:18:01;6.77;;;2.43;;
4698;SDS011;33708;49.466;11.176;2022-08-11T16:20:30;6.50;;;1.93;;
4698;SDS011;33708;49.466;11.176;2022-08-11T16:23:00;9.33;;;2.37;;
4698;SDS011;33708;49.466;11.176;2022-08-11T16:25:29;9.40;;;2.50;;
4698;SDS011;33708;49.466;11.176;2022-08-11T16:27:59;12.80;;;2.23;;
4698;SDS011;33708;49.466;11.176;2022-08-11T16:30:31;9.13;;;2.17;;
4698;SDS011;33708;49.466;11.176;2022-08-11T16:32:59;7.27;;;2.00;;
4698;SDS011;33708;49.466;11.176;2022-08-11T16:35:29;9.83;;;2.13;;
4698;SDS011;33708;49.466;11.176;2022-08-11T16:38:16;7.83;;;2.17;;
4698;SDS011;33708;49.466;11.176;2022-08-11T16:40:59;9.83;;;2.57;;
4698;SDS011;33708;49.466;11.176;2022-08-11T16:43:31;9.67;;;1.83;;
4698;SDS011;33708;49.466;11.176;2022-08-11T16:46:20;10.97;;;2.07;;
4698;SDS011;33708;49.466;11.176;2022-08-11T16:49:03;10.27;;;2.30;;
4698;SDS011;33708;49.466;11.176;2022-08-11T16:51:34;8.23;;;2.80;;
4698;SDS011;33708;49.466;11.176;2022-08-11T16:54:00;8.53;;;2.63;;
4698;SDS011;33708;49.466;11.176;2022-08-11T16:59:14;11.20;;;2.67;;
4698;SDS011;33708;49.466;11.176;2022-08-11T17:01:55;7.40;;;2.10;;
4698;SDS011;33708;49.466;11.176;2022-08-11T17:04:49;8.60;;;2.17;;
4698;SDS011;33708;49.466;11.176;2022-08-11T17:07:36;7.93;;;2.23;;
4698;SDS011;33708;49.466;11.176;2022-08-11T17:10:27;8.90;;;2.43;;
4698;SDS011;33708;49.466;11.176;2022-08-11T17:13:16;11.83;;;2.30;;
4698;SDS011;33708;49.466;11.176;2022-08-11T17:15:46;6.77;;;1.83;;
4698;SDS011;33708;49.466;11.176;2022-08-11T17:18:42;6.40;;;2.20;;
4698;SDS011;33708;49.466;11.176;2022-08-11T17:21:36;9.90;;;2.60;;
4698;SDS011;33708;49.466;11.176;2022-08-11T17:24:25;14.03;;;2.70;;
4698;SDS011;33708;49.466;11.176;2022-08-11T17:26:53;8.53;;;2.20;;
4698;SDS011;33708;49.466;11.176;2022-08-11T17:29:24;10.90;;;2.50;;
4698;SDS011;33708;49.466;11.176;2022-08-11T17:31:51;5.70;;;1.90;;
4698;SDS011;33708;49.466;11.176;2022-08-11T17:34:36;8.30;;;2.27;;
4698;SDS011;33708;49.466;11.176;2022-08-11T17:37:25;6.67;;;2.30;;
4698;SDS011;33708;49.466;11.176;2022-08-11T17:39:52;11.17;;;2.10;;
4698;SDS011;33708;49.466;11.176;2022-08-11T17:42:19;6.70;;;2.17;;
4698;SDS011;33708;49.466;11.176;2022-08-11T17:45:05;8.40;;;2.73;;
4698;SDS011;33708;49.466;11.176;2022-08-11T17:47:53;11.53;;;2.10;;
4698;SDS011;33708;49.466;11.176;2022-08-11T17:50:39;8.17;;;2.70;;
4698;SDS011;33708;49.466;11.176;2022-08-11T17:53:06;15.90;;;2.87;;
4698;SDS011;33708;49.466;11.176;2022-08-11T17:55:51;8.97;;;2.10;;
4698;SDS011;33708;49.466;11.176;2022-08-11T17:58:36;6.67;;;2.37;;
4698;SDS011;33708;49.466;11.176;2022-08-11T18:01:23;7.83;;;2.13;;
4698;SDS011;33708;49.466;11.176;2022-08-11T18:03:50;12.17;;;2.73;;
4698;SDS011;33708;49.466;11.176;2022-08-11T18:06:17;7.30;;;2.23;;
4698;SDS011;33708;49.466;11.176;2022-08-11T18:08:45;8.80;;;2.40;;
4698;SDS011;33708;49.466;11.176;2022-08-11T18:11:31;8.33;;;2.60;;
4698;SDS011;33708;49.466;11.176;2022-08-11T18:14:17;6.40;;;2.20;;
4698;SDS011;33708;49.466;11.176;2022-08-11T18:17:03;6.83;;;2.47;;
4698;SDS011;33708;49.466;11.176;2022-08-11T18:19:47;9.20;;;2.10;;
4698;SDS011;33708;49.466;11.176;2022-08-11T18:22:36;11.70;;;2.10;;
4698;SDS011;33708;49.466;11.176;2022-08-11T18:25:26;8.30;;;2.13;;
4698;SDS011;33708;49.466;11.176;2022-08-11T18:28:14;7.50;;;2.13;;
4698;SDS011;33708;49.466;11.176;2022-08-11T18:31:04;7.20;;;2.40;;
4698;SDS011;33708;49.466;11.176;2022-08-11T18:33:52;7.23;;;2.10;;
4698;SDS011;33708;49.466;11.176;2022-08-11T18:36:45;8.10;;;2.30;;
4698;SDS011;33708;49.466;11.176;2022-08-11T18:39:41;13.43;;;2.33;;
4698;SDS011;33708;49.466;11.176;2022-08-11T18:42:28;10.80;;;2.87;;
4698;SDS011;33708;49.466;11.176;2022-08-11T18:45:15;6.73;;;2.63;;
4698;SDS011;33708;49.466;11.176;2022-08-11T18:48:03;10.67;;;2.60;;
4698;SDS011;33708;49.466;11.176;2022-08-11T18:50:53;7.43;;;2.17;;
4698;SDS011;33708;49.466;11.176;2022-08-11T18:53:39;8.03;;;2.33;;
4698;SDS011;33708;49.466;11.176;2022-08-11T18:56:26;14.50;;;2.47;;
4698;SDS011;33708;49.466;11.176;2022-08-11T18:59:13;9.10;;;2.13;;
4698;SDS011;33708;49.466;11.176;2022-08-11T19:02:02;21.10;;;2.77;;
4698;SDS011;33708;49.466;11.176;2022-08-11T19:04:47;13.23;;;2.70;;
4698;SDS011;33708;49.466;11.176;2022-08-11T19:07:33;6.90;;;2.27;;
4698;SDS011;33708;49.466;11.176;2022-08-11T19:10:18;11.30;;;2.70;;
4698;SDS011;33708;49.466;11.176;2022-08-11T19:13:04;11.13;;;3.00;;
4698;SDS011;33708;49.466;11.176;2022-08-11T19:15:51;6.30;;;2.30;;
4698;SDS011;33708;49.466;11.176;2022-08-11T19:18:37;9.27;;;2.73;;
4698;SDS011;33708;49.466;11.176;2022-08-11T19:21:22;9.43;;;2.63;;
4698;SDS011;33708;49.466;11.176;2022-08-11T19:24:07;9.60;;;2.50;;
4698;SDS011;33708;49.466;11.176;2022-08-11T19:26:53;13.20;;;2.33;;
4698;SDS011;33708;49.466;11.176;2022-08-11T19:29:38;7.40;;;2.97;;
4698;SDS011;33708;49.466;11.176;2022-08-11T19:32:25;12.67;;;2.77;;
4698;SDS011;33708;49.466;11.176;2022-08-11T19:35:11;20.57;;;2.87;;
4698;SDS011;33708;49.466;11.176;2022-08-11T19:37:57;8.53;;;2.63;;